sensor_id;sensor_type;location;lat;lon;timestamp;temperature;humidity
38090;DHT22;23904;52.322;10.232;2024-02-21T00:01:36;8.20;99.90
38090;DHT22;23904;52.322;10.232;2024-02-21T00:04:02;8.30;99.90
38090;DHT22;23904;52.322;10.232;2024-02-21T00:06:27;8.20;99.90
38090;DHT22;23904;52.322;10.232;2024-02-21T00:08:53;8.20;99.90
38090;DHT22;23904;52.322;10.232;2024-02-21T00:11:18;8.20;99.90
38090;DHT22;23904;52.322;10.232;2024-02-21T00:13:44;8.20;99.90
38090;DHT22;23904;52.322;10.232;2024-02-21T00:16:09;8.30;99.90
38090;DHT22;23904;52.322;10.232;2024-02-21T00:18:36;8.20;99.90
38090;DHT22;23904;52.322;10.232;2024-02-21T00:21:02;8.30;99.90
38090;DHT22;23904;52.322;10.232;2024-02-21T00:23:28;8.30;99.90
38090;DHT22;23904;52.322;10.232;2024-02-21T00:25:54;8.30;99.90
38090;DHT22;23904;52.322;10.232;2024-02-21T00:28:19;8.20;99.90
38090;DHT22;23904;52.322;10.232;2024-02-21T00:30:45;8.30;99.90
38090;DHT22;23904;52.322;10.232;2024-02-21T00:33:13;8.30;99.90
38090;DHT22;23904;52.322;10.232;2024-02-21T00:35:38;8.30;99.90
38090;DHT22;23904;52.322;10.232;2024-02-21T00:38:04;8.40;99.90
38090;DHT22;23904;52.322;10.232;2024-02-21T00:40:30;8.40;99.90
38090;DHT22;23904;52.322;10.232;2024-02-21T00:42:55;8.40;99.90
38090;DHT22;23904;52.322;10.232;2024-02-21T00:45:21;8.40;99.90
38090;DHT22;23904;52.322;10.232;2024-02-21T00:47:46;8.40;99.90
38090;DHT22;23904;52.322;10.232;2024-02-21T00:50:12;8.40;99.90
38090;DHT22;23904;52.322;10.232;2024-02-21T00:52:38;8.40;99.90
38090;DHT22;23904;52.322;10.232;2024-02-21T00:55:04;8.40;99.90
38090;DHT22;23904;52.322;10.232;2024-02-21T00:57:30;8.50;99.90
38090;DHT22;23904;52.322;10.232;2024-02-21T00:59:55;8.40;99.90
38090;DHT22;23904;52.322;10.232;2024-02-21T01:02:21;8.40;99.90
38090;DHT22;23904;52.322;10.232;2024-02-21T01:04:47;8.40;99.90
38090;DHT22;23904;52.322;10.232;2024-02-21T01:07:12;8.40;99.90
38090;DHT22;23904;52.322;10.232;2024-02-21T01:09:38;8.40;99.90
38090;DHT22;23904;52.322;10.232;2024-02-21T01:12:03;8.30;99.90
38090;DHT22;23904;52.322;10.232;2024-02-21T01:14:29;8.30;99.90
38090;DHT22;23904;52.322;10.232;2024-02-21T01:16:54;8.40;99.90
38090;DHT22;23904;52.322;10.232;2024-02-21T01:19:20;8.40;99.90
38090;DHT22;23904;52.322;10.232;2024-02-21T01:21:45;8.40;99.90
38090;DHT22;23904;52.322;10.232;2024-02-21T01:24:11;8.40;99.90
38090;DHT22;23904;52.322;10.232;2024-02-21T01:26:37;8.40;99.90
38090;DHT22;23904;52.322;10.232;2024-02-21T01:29:02;8.40;99.90
38090;DHT22;23904;52.322;10.232;2024-02-21T01:31:28;8.40;99.90
38090;DHT22;23904;52.322;10.232;2024-02-21T01:33:53;8.40;99.90
38090;DHT22;23904;52.322;10.232;2024-02-21T01:36:18;8.40;99.90
38090;DHT22;23904;52.322;10.232;2024-02-21T01:38:44;8.40;99.90
38090;DHT22;23904;52.322;10.232;2024-02-21T01:41:09;8.40;99.90
38090;DHT22;23904;52.322;10.232;2024-02-21T01:43:35;8.50;99.90
38090;DHT22;23904;52.322;10.232;2024-02-21T01:46:01;8.40;99.90
38090;DHT22;23904;52.322;10.232;2024-02-21T01:48:27;8.50;99.90
38090;DHT22;23904;52.322;10.232;2024-02-21T01:50:54;8.40;99.90
38090;DHT22;23904;52.322;10.232;2024-02-21T01:53:29;8.40;99.90
38090;DHT22;23904;52.322;10.232;2024-02-21T01:55:56;8.50;99.90
38090;DHT22;23904;52.322;10.232;2024-02-21T01:58:22;8.50;99.90
38090;DHT22;23904;52.322;10.232;2024-02-21T02:00:48;8.50;99.90
38090;DHT22;23904;52.322;10.232;2024-02-21T02:03:14;8.50;99.90
38090;DHT22;23904;52.322;10.232;2024-02-21T02:05:45;8.50;99.90
38090;DHT22;23904;52.322;10.232;2024-02-21T02:08:16;8.50;99.90
38090;DHT22;23904;52.322;10.232;2024-02-21T02:10:43;8.50;99.90
38090;DHT22;23904;52.322;10.232;2024-02-21T02:13:09;8.50;99.90
38090;DHT22;23904;52.322;10.232;2024-02-21T02:15:45;8.60;99.90
38090;DHT22;23904;52.322;10.232;2024-02-21T02:18:13;8.60;99.90
38090;DHT22;23904;52.322;10.232;2024-02-21T02:20:40;8.60;99.90
38090;DHT22;23904;52.322;10.232;2024-02-21T02:23:24;8.60;99.90
38090;DHT22;23904;52.322;10.232;2024-02-21T02:25:50;8.60;99.90
38090;DHT22;23904;52.322;10.232;2024-02-21T02:28:20;8.60;99.90
38090;DHT22;23904;52.322;10.232;2024-02-21T02:30:46;8.60;99.90
38090;DHT22;23904;52.322;10.232;2024-02-21T02:33:12;8.60;99.90
38090;DHT22;23904;52.322;10.232;2024-02-21T02:35:38;8.60;99.90
38090;DHT22;23904;52.322;10.232;2024-02-21T02:38:04;8.60;99.90
38090;DHT22;23904;52.322;10.232;2024-02-21T02:40:34;8.60;99.90
38090;DHT22;23904;52.322;10.232;2024-02-21T02:43:00;8.60;99.90
38090;DHT22;23904;52.322;10.232;2024-02-21T02:45:26;8.60;99.90
38090;DHT22;23904;52.322;10.232;2024-02-21T02:47:53;8.60;99.90
38090;DHT22;23904;52.322;10.232;2024-02-21T02:50:25;8.60;99.90
38090;DHT22;23904;52.322;10.232;2024-02-21T02:52:52;8.60;99.90
38090;DHT22;23904;52.322;10.232;2024-02-21T02:55:18;8.60;99.90
38090;DHT22;23904;52.322;10.232;2024-02-21T02:57:44;8.60;99.90
38090;DHT22;23904;52.322;10.232;2024-02-21T03:00:11;8.60;99.90
38090;DHT22;23904;52.322;10.232;2024-02-21T03:02:38;8.60;99.90
38090;DHT22;23904;52.322;10.232;2024-02-21T03:05:12;8.60;99.90
38090;DHT22;23904;52.322;10.232;2024-02-21T03:07:43;8.70;99.90
38090;DHT22;23904;52.322;10.232;2024-02-21T03:10:09;8.70;99.90
38090;DHT22;23904;52.322;10.232;2024-02-21T03:12:35;8.70;99.90
38090;DHT22;23904;52.322;10.232;2024-02-21T03:15:01;8.70;99.90
38090;DHT22;23904;52.322;10.232;2024-02-21T03:17:26;8.70;99.90
38090;DHT22;23904;52.322;10.232;2024-02-21T03:19:53;8.70;99.90
38090;DHT22;23904;52.322;10.232;2024-02-21T03:22:19;8.70;99.90
38090;DHT22;23904;52.322;10.232;2024-02-21T03:24:44;8.70;99.90
38090;DHT22;23904;52.322;10.232;2024-02-21T03:27:10;8.70;99.90
38090;DHT22;23904;52.322;10.232;2024-02-21T03:29:35;8.70;99.90
38090;DHT22;23904;52.322;10.232;2024-02-21T03:32:01;8.70;99.90
38090;DHT22;23904;52.322;10.232;2024-02-21T03:34:26;8.70;99.90
38090;DHT22;23904;52.322;10.232;2024-02-21T03:36:52;8.70;99.90
38090;DHT22;23904;52.322;10.232;2024-02-21T03:39:18;8.70;99.90
38090;DHT22;23904;52.322;10.232;2024-02-21T03:41:43;8.80;99.90
38090;DHT22;23904;52.322;10.232;2024-02-21T03:44:09;8.70;99.90
38090;DHT22;23904;52.322;10.232;2024-02-21T03:46:34;8.70;99.90
38090;DHT22;23904;52.322;10.232;2024-02-21T03:49:00;8.70;99.90
38090;DHT22;23904;52.322;10.232;2024-02-21T03:51:26;8.80;99.90
38090;DHT22;23904;52.322;10.232;2024-02-21T03:53:51;8.80;99.90
38090;DHT22;23904;52.322;10.232;2024-02-21T03:56:17;8.80;99.90
38090;DHT22;23904;52.322;10.232;2024-02-21T03:58:43;8.80;99.90
38090;DHT22;23904;52.322;10.232;2024-02-21T04:01:08;8.80;99.90
38090;DHT22;23904;52.322;10.232;2024-02-21T04:03:34;8.70;99.90
38090;DHT22;23904;52.322;10.232;2024-02-21T04:05:59;8.80;99.90
38090;DHT22;23904;52.322;10.232;2024-02-21T04:08:25;8.80;99.90
38090;DHT22;23904;52.322;10.232;2024-02-21T04:10:51;8.80;99.90
38090;DHT22;23904;52.322;10.232;2024-02-21T04:13:17;8.80;99.90
38090;DHT22;23904;52.322;10.232;2024-02-21T04:15:42;8.80;99.90
38090;DHT22;23904;52.322;10.232;2024-02-21T04:18:08;8.80;99.90
38090;DHT22;23904;52.322;10.232;2024-02-21T04:20:34;8.80;99.90
38090;DHT22;23904;52.322;10.232;2024-02-21T04:23:00;8.80;99.90
38090;DHT22;23904;52.322;10.232;2024-02-21T04:25:25;8.80;99.90
38090;DHT22;23904;52.322;10.232;2024-02-21T04:27:51;8.80;99.90
38090;DHT22;23904;52.322;10.232;2024-02-21T04:30:17;8.80;99.90
38090;DHT22;23904;52.322;10.232;2024-02-21T04:32:43;8.80;99.90
38090;DHT22;23904;52.322;10.232;2024-02-21T04:35:08;8.80;99.90
38090;DHT22;23904;52.322;10.232;2024-02-21T04:37:34;8.90;99.90
38090;DHT22;23904;52.322;10.232;2024-02-21T04:40:00;8.90;99.90
38090;DHT22;23904;52.322;10.232;2024-02-21T04:42:25;8.90;99.90
38090;DHT22;23904;52.322;10.232;2024-02-21T04:44:51;8.90;99.90
38090;DHT22;23904;52.322;10.232;2024-02-21T04:47:17;8.90;99.90
38090;DHT22;23904;52.322;10.232;2024-02-21T04:49:45;8.80;99.90
38090;DHT22;23904;52.322;10.232;2024-02-21T04:52:11;8.90;99.90
38090;DHT22;23904;52.322;10.232;2024-02-21T04:54:37;8.90;99.90
38090;DHT22;23904;52.322;10.232;2024-02-21T04:57:02;8.80;99.90
38090;DHT22;23904;52.322;10.232;2024-02-21T04:59:28;8.80;99.90
38090;DHT22;23904;52.322;10.232;2024-02-21T05:01:54;8.80;99.90
38090;DHT22;23904;52.322;10.232;2024-02-21T05:04:20;8.80;99.90
38090;DHT22;23904;52.322;10.232;2024-02-21T05:06:45;8.80;99.90
38090;DHT22;23904;52.322;10.232;2024-02-21T05:09:11;8.80;99.90
38090;DHT22;23904;52.322;10.232;2024-02-21T05:11:37;8.80;99.90
38090;DHT22;23904;52.322;10.232;2024-02-21T05:14:06;8.80;99.90
38090;DHT22;23904;52.322;10.232;2024-02-21T05:16:32;8.80;99.90
38090;DHT22;23904;52.322;10.232;2024-02-21T05:18:57;8.80;99.90
38090;DHT22;23904;52.322;10.232;2024-02-21T05:21:23;8.80;99.90
38090;DHT22;23904;52.322;10.232;2024-02-21T05:23:50;8.80;99.90
38090;DHT22;23904;52.322;10.232;2024-02-21T05:26:23;8.80;99.90
38090;DHT22;23904;52.322;10.232;2024-02-21T05:28:49;8.80;99.90
38090;DHT22;23904;52.322;10.232;2024-02-21T05:31:19;8.90;99.90
38090;DHT22;23904;52.322;10.232;2024-02-21T05:33:45;8.90;99.90
38090;DHT22;23904;52.322;10.232;2024-02-21T05:36:11;8.80;99.90
38090;DHT22;23904;52.322;10.232;2024-02-21T05:38:37;8.80;99.90
38090;DHT22;23904;52.322;10.232;2024-02-21T05:41:03;8.80;99.90
38090;DHT22;23904;52.322;10.232;2024-02-21T05:43:29;8.80;99.90
38090;DHT22;23904;52.322;10.232;2024-02-21T05:45:55;8.80;99.90
38090;DHT22;23904;52.322;10.232;2024-02-21T05:48:21;8.80;99.90
38090;DHT22;23904;52.322;10.232;2024-02-21T05:50:47;8.90;99.90
38090;DHT22;23904;52.322;10.232;2024-02-21T05:53:13;8.90;99.90
38090;DHT22;23904;52.322;10.232;2024-02-21T05:55:39;8.90;99.90
38090;DHT22;23904;52.322;10.232;2024-02-21T05:58:05;8.90;99.90
38090;DHT22;23904;52.322;10.232;2024-02-21T06:00:31;8.90;99.90
38090;DHT22;23904;52.322;10.232;2024-02-21T06:02:57;8.90;99.90
38090;DHT22;23904;52.322;10.232;2024-02-21T06:05:23;8.90;99.90
38090;DHT22;23904;52.322;10.232;2024-02-21T06:07:48;9.00;99.90
38090;DHT22;23904;52.322;10.232;2024-02-21T06:10:14;9.00;99.90
38090;DHT22;23904;52.322;10.232;2024-02-21T06:12:39;8.90;99.90
38090;DHT22;23904;52.322;10.232;2024-02-21T06:15:05;9.00;99.90
38090;DHT22;23904;52.322;10.232;2024-02-21T06:17:31;9.00;99.90
38090;DHT22;23904;52.322;10.232;2024-02-21T06:19:57;9.00;99.90
38090;DHT22;23904;52.322;10.232;2024-02-21T06:22:23;9.00;99.90
38090;DHT22;23904;52.322;10.232;2024-02-21T06:24:48;8.90;99.90
38090;DHT22;23904;52.322;10.232;2024-02-21T06:27:14;8.90;99.90
38090;DHT22;23904;52.322;10.232;2024-02-21T06:29:41;9.00;99.90
38090;DHT22;23904;52.322;10.232;2024-02-21T06:32:07;9.00;99.90
38090;DHT22;23904;52.322;10.232;2024-02-21T06:34:32;8.90;99.90
38090;DHT22;23904;52.322;10.232;2024-02-21T06:36:58;8.90;99.90
38090;DHT22;23904;52.322;10.232;2024-02-21T06:39:23;8.90;99.90
38090;DHT22;23904;52.322;10.232;2024-02-21T06:41:49;8.90;99.90
38090;DHT22;23904;52.322;10.232;2024-02-21T06:44:19;8.90;99.90
38090;DHT22;23904;52.322;10.232;2024-02-21T06:46:45;8.90;99.90
38090;DHT22;23904;52.322;10.232;2024-02-21T06:49:10;8.90;99.90
38090;DHT22;23904;52.322;10.232;2024-02-21T06:51:42;8.80;99.90
38090;DHT22;23904;52.322;10.232;2024-02-21T06:54:08;8.80;99.90
38090;DHT22;23904;52.322;10.232;2024-02-21T06:56:37;8.80;99.90
38090;DHT22;23904;52.322;10.232;2024-02-21T06:59:02;8.80;99.90
38090;DHT22;23904;52.322;10.232;2024-02-21T07:01:31;8.90;99.90
38090;DHT22;23904;52.322;10.232;2024-02-21T07:03:57;8.90;99.90
38090;DHT22;23904;52.322;10.232;2024-02-21T07:06:23;8.90;99.90
38090;DHT22;23904;52.322;10.232;2024-02-21T07:08:48;8.90;99.90
38090;DHT22;23904;52.322;10.232;2024-02-21T07:11:14;8.90;99.90
38090;DHT22;23904;52.322;10.232;2024-02-21T07:13:40;8.90;99.90
38090;DHT22;23904;52.322;10.232;2024-02-21T07:16:06;8.90;99.90
38090;DHT22;23904;52.322;10.232;2024-02-21T07:18:32;8.80;99.90
38090;DHT22;23904;52.322;10.232;2024-02-21T07:20:58;8.90;99.90
38090;DHT22;23904;52.322;10.232;2024-02-21T07:23:24;8.90;99.90
38090;DHT22;23904;52.322;10.232;2024-02-21T07:25:49;8.90;99.90
38090;DHT22;23904;52.322;10.232;2024-02-21T07:28:15;8.90;99.90
38090;DHT22;23904;52.322;10.232;2024-02-21T07:30:41;8.90;99.90
38090;DHT22;23904;52.322;10.232;2024-02-21T07:33:07;8.90;99.90
38090;DHT22;23904;52.322;10.232;2024-02-21T07:35:33;8.90;99.90
38090;DHT22;23904;52.322;10.232;2024-02-21T07:37:58;8.90;99.90
38090;DHT22;23904;52.322;10.232;2024-02-21T07:40:24;8.90;99.90
38090;DHT22;23904;52.322;10.232;2024-02-21T07:42:49;8.90;99.90
38090;DHT22;23904;52.322;10.232;2024-02-21T07:45:15;8.90;99.90
38090;DHT22;23904;52.322;10.232;2024-02-21T07:47:40;8.90;99.90
38090;DHT22;23904;52.322;10.232;2024-02-21T07:50:06;9.00;99.90
38090;DHT22;23904;52.322;10.232;2024-02-21T07:52:32;9.00;99.90
38090;DHT22;23904;52.322;10.232;2024-02-21T07:54:58;9.00;99.90
38090;DHT22;23904;52.322;10.232;2024-02-21T07:57:23;9.10;99.90
38090;DHT22;23904;52.322;10.232;2024-02-21T07:59:49;9.20;99.90
38090;DHT22;23904;52.322;10.232;2024-02-21T08:02:15;9.20;99.90
38090;DHT22;23904;52.322;10.232;2024-02-21T08:04:41;9.30;99.90
38090;DHT22;23904;52.322;10.232;2024-02-21T08:07:06;9.30;99.90
38090;DHT22;23904;52.322;10.232;2024-02-21T08:09:32;9.30;99.90
38090;DHT22;23904;52.322;10.232;2024-02-21T08:11:58;9.40;99.90
38090;DHT22;23904;52.322;10.232;2024-02-21T08:14:24;9.40;99.90
38090;DHT22;23904;52.322;10.232;2024-02-21T08:16:50;9.40;99.90
38090;DHT22;23904;52.322;10.232;2024-02-21T08:19:18;9.40;99.90
38090;DHT22;23904;52.322;10.232;2024-02-21T08:21:44;9.40;99.90
38090;DHT22;23904;52.322;10.232;2024-02-21T08:24:12;9.40;99.90
38090;DHT22;23904;52.322;10.232;2024-02-21T08:26:41;9.40;99.90
38090;DHT22;23904;52.322;10.232;2024-02-21T08:29:13;9.40;99.90
38090;DHT22;23904;52.322;10.232;2024-02-21T08:31:38;9.40;99.90
38090;DHT22;23904;52.322;10.232;2024-02-21T08:34:04;9.40;99.90
38090;DHT22;23904;52.322;10.232;2024-02-21T08:36:35;9.30;99.90
38090;DHT22;23904;52.322;10.232;2024-02-21T08:39:02;9.40;99.90
38090;DHT22;23904;52.322;10.232;2024-02-21T08:41:31;9.40;99.90
38090;DHT22;23904;52.322;10.232;2024-02-21T08:43:57;9.40;99.90
38090;DHT22;23904;52.322;10.232;2024-02-21T08:46:23;9.40;99.90
38090;DHT22;23904;52.322;10.232;2024-02-21T08:48:50;9.40;99.90
38090;DHT22;23904;52.322;10.232;2024-02-21T08:51:17;9.40;99.90
38090;DHT22;23904;52.322;10.232;2024-02-21T08:53:46;9.30;99.90
38090;DHT22;23904;52.322;10.232;2024-02-21T08:56:12;9.40;99.90
38090;DHT22;23904;52.322;10.232;2024-02-21T08:58:39;9.40;99.90
38090;DHT22;23904;52.322;10.232;2024-02-21T09:01:06;9.30;99.90
38090;DHT22;23904;52.322;10.232;2024-02-21T09:03:39;9.30;99.90
38090;DHT22;23904;52.322;10.232;2024-02-21T09:06:05;9.40;99.90
38090;DHT22;23904;52.322;10.232;2024-02-21T09:08:32;9.40;99.90
38090;DHT22;23904;52.322;10.232;2024-02-21T09:10:59;9.40;99.90
38090;DHT22;23904;52.322;10.232;2024-02-21T09:13:25;9.50;99.90
38090;DHT22;23904;52.322;10.232;2024-02-21T09:15:51;9.60;99.90
38090;DHT22;23904;52.322;10.232;2024-02-21T09:18:16;9.70;99.90
38090;DHT22;23904;52.322;10.232;2024-02-21T09:20:42;9.80;99.90
38090;DHT22;23904;52.322;10.232;2024-02-21T09:23:08;9.90;99.90
38090;DHT22;23904;52.322;10.232;2024-02-21T09:25:34;10.00;99.90
38090;DHT22;23904;52.322;10.232;2024-02-21T09:28:01;10.10;99.90
38090;DHT22;23904;52.322;10.232;2024-02-21T09:30:27;10.30;99.90
38090;DHT22;23904;52.322;10.232;2024-02-21T09:32:53;10.30;99.90
38090;DHT22;23904;52.322;10.232;2024-02-21T09:35:18;10.40;99.90
38090;DHT22;23904;52.322;10.232;2024-02-21T09:37:44;10.40;99.90
38090;DHT22;23904;52.322;10.232;2024-02-21T09:40:10;10.50;99.90
38090;DHT22;23904;52.322;10.232;2024-02-21T09:42:40;10.50;99.90
38090;DHT22;23904;52.322;10.232;2024-02-21T09:45:20;10.70;99.90
38090;DHT22;23904;52.322;10.232;2024-02-21T09:50:47;10.70;99.90
38090;DHT22;23904;52.322;10.232;2024-02-21T09:53:15;10.90;99.90
38090;DHT22;23904;52.322;10.232;2024-02-21T09:55:41;11.00;99.90
38090;DHT22;23904;52.322;10.232;2024-02-21T09:58:08;11.20;99.90
38090;DHT22;23904;52.322;10.232;2024-02-21T10:00:35;11.20;99.90
38090;DHT22;23904;52.322;10.232;2024-02-21T10:03:02;11.10;99.90
38090;DHT22;23904;52.322;10.232;2024-02-21T10:05:33;11.30;99.90
38090;DHT22;23904;52.322;10.232;2024-02-21T10:08:01;11.60;99.90
38090;DHT22;23904;52.322;10.232;2024-02-21T10:10:27;11.90;99.90
38090;DHT22;23904;52.322;10.232;2024-02-21T10:12:53;12.10;99.90
38090;DHT22;23904;52.322;10.232;2024-02-21T10:15:24;12.10;99.90
38090;DHT22;23904;52.322;10.232;2024-02-21T10:17:58;12.10;99.90
38090;DHT22;23904;52.322;10.232;2024-02-21T10:20:24;12.10;99.90
38090;DHT22;23904;52.322;10.232;2024-02-21T10:23:00;12.10;99.90
38090;DHT22;23904;52.322;10.232;2024-02-21T10:25:36;11.80;99.90
38090;DHT22;23904;52.322;10.232;2024-02-21T10:28:12;11.50;99.90
38090;DHT22;23904;52.322;10.232;2024-02-21T10:30:38;11.20;99.90
38090;DHT22;23904;52.322;10.232;2024-02-21T10:33:05;11.10;99.90
38090;DHT22;23904;52.322;10.232;2024-02-21T10:35:32;11.00;99.90
38090;DHT22;23904;52.322;10.232;2024-02-21T10:37:59;11.00;99.90
38090;DHT22;23904;52.322;10.232;2024-02-21T10:40:27;10.90;99.90
38090;DHT22;23904;52.322;10.232;2024-02-21T10:43:00;10.90;99.90
38090;DHT22;23904;52.322;10.232;2024-02-21T10:45:31;11.00;99.90
38090;DHT22;23904;52.322;10.232;2024-02-21T10:48:13;11.00;99.90
38090;DHT22;23904;52.322;10.232;2024-02-21T10:53:55;11.00;99.90
38090;DHT22;23904;52.322;10.232;2024-02-21T10:56:32;11.00;99.90
38090;DHT22;23904;52.322;10.232;2024-02-21T10:59:04;11.00;99.90
38090;DHT22;23904;52.322;10.232;2024-02-21T11:01:31;11.10;99.90
38090;DHT22;23904;52.322;10.232;2024-02-21T11:03:59;11.10;99.90
38090;DHT22;23904;52.322;10.232;2024-02-21T11:06:28;11.20;99.90
38090;DHT22;23904;52.322;10.232;2024-02-21T11:09:06;11.20;99.90
38090;DHT22;23904;52.322;10.232;2024-02-21T11:11:36;11.10;99.90
38090;DHT22;23904;52.322;10.232;2024-02-21T11:14:20;11.40;99.90
38090;DHT22;23904;52.322;10.232;2024-02-21T11:16:47;11.80;99.90
38090;DHT22;23904;52.322;10.232;2024-02-21T11:19:24;12.10;99.90
38090;DHT22;23904;52.322;10.232;2024-02-21T11:21:52;12.30;99.90
38090;DHT22;23904;52.322;10.232;2024-02-21T11:27:16;12.20;99.90
38090;DHT22;23904;52.322;10.232;2024-02-21T11:29:58;12.20;99.90
38090;DHT22;23904;52.322;10.232;2024-02-21T11:32:25;12.10;99.90
38090;DHT22;23904;52.322;10.232;2024-02-21T11:34:58;12.20;99.90
38090;DHT22;23904;52.322;10.232;2024-02-21T11:37:29;12.20;99.90
38090;DHT22;23904;52.322;10.232;2024-02-21T11:39:57;12.30;99.90
38090;DHT22;23904;52.322;10.232;2024-02-21T11:42:25;12.50;99.90
38090;DHT22;23904;52.322;10.232;2024-02-21T11:44:52;12.40;99.90
38090;DHT22;23904;52.322;10.232;2024-02-21T11:47:18;12.20;99.90
38090;DHT22;23904;52.322;10.232;2024-02-21T11:49:47;12.20;99.90
38090;DHT22;23904;52.322;10.232;2024-02-21T11:52:15;12.20;99.90
38090;DHT22;23904;52.322;10.232;2024-02-21T11:54:42;12.20;99.90
38090;DHT22;23904;52.322;10.232;2024-02-21T11:57:08;12.20;99.90
38090;DHT22;23904;52.322;10.232;2024-02-21T11:59:34;12.40;99.90
38090;DHT22;23904;52.322;10.232;2024-02-21T12:02:00;12.60;99.90
38090;DHT22;23904;52.322;10.232;2024-02-21T12:04:29;12.80;99.90
38090;DHT22;23904;52.322;10.232;2024-02-21T12:06:57;12.80;99.90
38090;DHT22;23904;52.322;10.232;2024-02-21T12:09:24;12.70;99.90
38090;DHT22;23904;52.322;10.232;2024-02-21T12:12:01;12.50;99.90
38090;DHT22;23904;52.322;10.232;2024-02-21T12:14:32;12.70;99.90
38090;DHT22;23904;52.322;10.232;2024-02-21T12:16:59;12.70;99.90
38090;DHT22;23904;52.322;10.232;2024-02-21T12:19:26;12.60;99.90
38090;DHT22;23904;52.322;10.232;2024-02-21T12:21:54;12.60;99.90
38090;DHT22;23904;52.322;10.232;2024-02-21T12:24:25;12.70;99.90
38090;DHT22;23904;52.322;10.232;2024-02-21T12:26:52;12.90;99.90
38090;DHT22;23904;52.322;10.232;2024-02-21T12:29:21;12.70;99.90
38090;DHT22;23904;52.322;10.232;2024-02-21T12:31:48;12.50;99.90
38090;DHT22;23904;52.322;10.232;2024-02-21T12:34:15;12.40;99.90
38090;DHT22;23904;52.322;10.232;2024-02-21T12:36:42;12.40;99.90
38090;DHT22;23904;52.322;10.232;2024-02-21T12:39:10;12.20;99.90
38090;DHT22;23904;52.322;10.232;2024-02-21T12:41:37;12.10;99.90
38090;DHT22;23904;52.322;10.232;2024-02-21T12:44:10;12.10;99.90
38090;DHT22;23904;52.322;10.232;2024-02-21T12:46:37;11.90;99.90
38090;DHT22;23904;52.322;10.232;2024-02-21T12:49:03;11.80;99.90
38090;DHT22;23904;52.322;10.232;2024-02-21T12:51:31;11.70;99.90
38090;DHT22;23904;52.322;10.232;2024-02-21T12:53:57;11.70;99.90
38090;DHT22;23904;52.322;10.232;2024-02-21T12:56:22;11.90;99.90
38090;DHT22;23904;52.322;10.232;2024-02-21T12:58:49;11.90;99.90
38090;DHT22;23904;52.322;10.232;2024-02-21T13:01:16;12.00;99.90
38090;DHT22;23904;52.322;10.232;2024-02-21T13:03:41;12.00;99.90
38090;DHT22;23904;52.322;10.232;2024-02-21T13:06:07;12.10;99.90
38090;DHT22;23904;52.322;10.232;2024-02-21T13:08:36;12.10;99.90
38090;DHT22;23904;52.322;10.232;2024-02-21T13:11:02;12.00;99.90
38090;DHT22;23904;52.322;10.232;2024-02-21T13:13:28;12.00;99.90
38090;DHT22;23904;52.322;10.232;2024-02-21T13:15:53;11.90;99.90
38090;DHT22;23904;52.322;10.232;2024-02-21T13:18:19;12.00;99.90
38090;DHT22;23904;52.322;10.232;2024-02-21T13:20:44;12.00;99.90
38090;DHT22;23904;52.322;10.232;2024-02-21T13:23:10;12.20;99.90
38090;DHT22;23904;52.322;10.232;2024-02-21T13:25:35;12.20;99.90
38090;DHT22;23904;52.322;10.232;2024-02-21T13:28:01;12.30;99.90
38090;DHT22;23904;52.322;10.232;2024-02-21T13:30:28;12.30;99.90
38090;DHT22;23904;52.322;10.232;2024-02-21T13:32:54;12.20;99.90
38090;DHT22;23904;52.322;10.232;2024-02-21T13:35:20;12.20;99.90
38090;DHT22;23904;52.322;10.232;2024-02-21T13:37:46;12.10;99.90
38090;DHT22;23904;52.322;10.232;2024-02-21T13:40:11;12.10;99.90
38090;DHT22;23904;52.322;10.232;2024-02-21T13:42:40;12.10;99.90
38090;DHT22;23904;52.322;10.232;2024-02-21T13:45:06;12.00;99.90
38090;DHT22;23904;52.322;10.232;2024-02-21T13:47:33;12.10;99.90
38090;DHT22;23904;52.322;10.232;2024-02-21T13:49:59;12.00;99.90
38090;DHT22;23904;52.322;10.232;2024-02-21T13:52:25;11.90;99.90
38090;DHT22;23904;52.322;10.232;2024-02-21T13:54:53;11.80;99.90
38090;DHT22;23904;52.322;10.232;2024-02-21T13:57:19;11.80;99.90
38090;DHT22;23904;52.322;10.232;2024-02-21T13:59:44;11.80;99.90
38090;DHT22;23904;52.322;10.232;2024-02-21T14:02:10;11.80;99.90
38090;DHT22;23904;52.322;10.232;2024-02-21T14:04:35;11.70;99.90
38090;DHT22;23904;52.322;10.232;2024-02-21T14:07:01;11.60;99.90
38090;DHT22;23904;52.322;10.232;2024-02-21T14:09:27;11.70;99.90
38090;DHT22;23904;52.322;10.232;2024-02-21T14:11:55;11.60;99.90
38090;DHT22;23904;52.322;10.232;2024-02-21T14:14:20;11.60;99.90
38090;DHT22;23904;52.322;10.232;2024-02-21T14:16:46;11.60;99.90
38090;DHT22;23904;52.322;10.232;2024-02-21T14:19:13;11.60;99.90
38090;DHT22;23904;52.322;10.232;2024-02-21T14:21:39;11.60;99.90
38090;DHT22;23904;52.322;10.232;2024-02-21T14:24:05;11.70;99.90
38090;DHT22;23904;52.322;10.232;2024-02-21T14:26:31;11.70;99.90
38090;DHT22;23904;52.322;10.232;2024-02-21T14:28:57;11.70;99.90
38090;DHT22;23904;52.322;10.232;2024-02-21T14:31:23;11.60;99.90
38090;DHT22;23904;52.322;10.232;2024-02-21T14:33:50;11.60;99.90
38090;DHT22;23904;52.322;10.232;2024-02-21T14:36:16;11.70;99.90
38090;DHT22;23904;52.322;10.232;2024-02-21T14:38:42;11.70;99.90
38090;DHT22;23904;52.322;10.232;2024-02-21T14:41:08;11.70;99.90
38090;DHT22;23904;52.322;10.232;2024-02-21T14:43:34;11.70;99.90
38090;DHT22;23904;52.322;10.232;2024-02-21T14:46:00;11.60;99.90
38090;DHT22;23904;52.322;10.232;2024-02-21T14:48:29;11.50;99.90
38090;DHT22;23904;52.322;10.232;2024-02-21T14:50:57;11.50;99.90
38090;DHT22;23904;52.322;10.232;2024-02-21T14:53:23;11.40;99.90
38090;DHT22;23904;52.322;10.232;2024-02-21T14:55:49;11.40;99.90
38090;DHT22;23904;52.322;10.232;2024-02-21T14:58:16;11.40;99.90
38090;DHT22;23904;52.322;10.232;2024-02-21T15:00:43;11.50;99.90
38090;DHT22;23904;52.322;10.232;2024-02-21T15:03:09;11.40;99.90
38090;DHT22;23904;52.322;10.232;2024-02-21T15:05:36;11.30;99.90
38090;DHT22;23904;52.322;10.232;2024-02-21T15:08:03;11.30;99.90
38090;DHT22;23904;52.322;10.232;2024-02-21T15:10:29;11.20;99.90
38090;DHT22;23904;52.322;10.232;2024-02-21T15:12:54;11.10;99.90
38090;DHT22;23904;52.322;10.232;2024-02-21T15:15:21;11.10;99.90
38090;DHT22;23904;52.322;10.232;2024-02-21T15:17:46;11.10;99.90
38090;DHT22;23904;52.322;10.232;2024-02-21T15:20:12;11.00;99.90
38090;DHT22;23904;52.322;10.232;2024-02-21T15:22:38;10.90;99.90
38090;DHT22;23904;52.322;10.232;2024-02-21T15:25:04;10.90;99.90
38090;DHT22;23904;52.322;10.232;2024-02-21T15:27:30;10.80;99.90
38090;DHT22;23904;52.322;10.232;2024-02-21T15:29:56;10.70;99.90
38090;DHT22;23904;52.322;10.232;2024-02-21T15:32:23;10.70;99.90